createdAt,value
2023-03-02T00:00:29.224Z,25.17
2023-03-02T00:03:01.739Z,23.63
2023-03-02T00:05:34.982Z,23.08
2023-03-02T00:08:10.065Z,22.48
2023-03-02T00:10:41.704Z,23.25
2023-03-02T00:13:13.964Z,22.23
2023-03-02T00:15:45.421Z,24.13
2023-03-02T00:18:16.850Z,23.25
2023-03-02T00:20:48.267Z,25.67
2023-03-02T00:23:19.682Z,27.33
2023-03-02T00:25:51.293Z,26.33
2023-03-02T00:28:22.697Z,29.92
2023-03-02T00:30:54.159Z,30.50
2023-03-02T00:33:26.135Z,31.37
2023-03-02T00:35:57.739Z,32.78
2023-03-02T00:38:29.558Z,33.50
2023-03-02T00:41:00.974Z,34.38
2023-03-02T00:43:32.440Z,34.22
2023-03-02T00:46:17.994Z,36.30
2023-03-02T00:48:50.330Z,38.00
2023-03-02T00:51:21.748Z,38.77
2023-03-02T00:53:53.205Z,39.63
2023-03-02T00:56:24.702Z,37.10
2023-03-02T00:58:56.129Z,37.60
2023-03-02T01:01:27.639Z,39.55
2023-03-02T01:03:59.074Z,40.40
2023-03-02T01:06:30.856Z,40.50
2023-03-02T01:09:02.483Z,40.47
2023-03-02T01:11:33.947Z,41.80
2023-03-02T01:14:05.381Z,39.90
2023-03-02T01:16:36.867Z,40.00
2023-03-02T01:19:08.431Z,41.63
2023-03-02T01:21:40.092Z,39.95
2023-03-02T01:24:12.092Z,41.45
2023-03-02T01:26:43.549Z,41.65
2023-03-02T01:29:14.996Z,40.22
2023-03-02T01:31:46.490Z,43.28
2023-03-02T01:34:18.027Z,42.38
2023-03-02T01:36:49.427Z,43.67
2023-03-02T01:39:21.132Z,43.05
2023-03-02T01:41:52.946Z,42.90
2023-03-02T01:44:36.606Z,43.38
2023-03-02T01:47:16.591Z,42.50
2023-03-02T01:49:55.019Z,42.65
2023-03-02T01:52:29.024Z,43.72
2023-03-02T01:55:03.933Z,41.88
2023-03-02T01:57:42.743Z,40.17
2023-03-02T02:00:20.337Z,42.30
2023-03-02T02:02:53.013Z,42.83
2023-03-02T02:05:25.454Z,40.67
2023-03-02T02:07:56.962Z,41.85
2023-03-02T02:10:30.947Z,42.85
2023-03-02T02:13:02.413Z,42.38
2023-03-02T02:15:34.375Z,41.92
2023-03-02T02:18:06.213Z,41.85
2023-03-02T02:20:44.142Z,44.35
2023-03-02T02:23:28.236Z,43.53
2023-03-02T02:26:10.257Z,44.67
2023-03-02T02:28:51.715Z,43.53
2023-03-02T02:31:46.870Z,44.40
2023-03-02T02:34:23.515Z,42.90
2023-03-02T02:36:59.472Z,44.05
2023-03-02T02:39:35.072Z,43.58
2023-03-02T02:42:13.323Z,44.88
2023-03-02T02:44:44.923Z,43.90
2023-03-02T02:47:19.757Z,43.75
2023-03-02T02:49:54.339Z,43.83
2023-03-02T02:52:27.832Z,43.47
2023-03-02T02:54:59.463Z,41.60
2023-03-02T02:57:31.362Z,42.22
2023-03-02T03:00:03.971Z,43.78
2023-03-02T03:02:42.199Z,41.28
2023-03-02T03:05:15.128Z,41.30
2023-03-02T03:07:46.889Z,41.55
2023-03-02T03:10:37.486Z,40.77
2023-03-02T03:13:11.384Z,40.33
2023-03-02T03:15:43.196Z,41.13
2023-03-02T03:18:22.990Z,39.45
2023-03-02T03:20:54.373Z,39.38
2023-03-02T03:23:25.863Z,39.45
2023-03-02T03:25:57.272Z,37.30
2023-03-02T03:28:28.833Z,41.30
2023-03-02T03:31:00.356Z,38.30
2023-03-02T03:33:31.841Z,38.53
2023-03-02T03:36:03.798Z,39.13
2023-03-02T03:38:35.384Z,37.22
2023-03-02T03:41:06.852Z,36.65
2023-03-02T03:43:38.595Z,38.90
2023-03-02T03:46:10.425Z,38.13
2023-03-02T03:48:41.932Z,37.20
2023-03-02T03:51:14.202Z,37.13
2023-03-02T03:53:46.609Z,38.85
2023-03-02T03:56:18.027Z,37.72
2023-03-02T03:58:49.566Z,35.97
2023-03-02T04:01:21.071Z,36.10
2023-03-02T04:03:52.539Z,37.95
2023-03-02T04:06:23.992Z,37.75
2023-03-02T04:08:55.480Z,37.65
2023-03-02T04:11:26.961Z,36.13
2023-03-02T04:13:58.588Z,36.85
2023-03-02T04:16:31.960Z,38.47
2023-03-02T04:19:05.046Z,37.42
2023-03-02T04:21:40.768Z,37.92
2023-03-02T04:24:13.281Z,36.97
2023-03-02T04:26:45.738Z,36.03
2023-03-02T04:29:18.475Z,37.30
2023-03-02T04:31:50.050Z,34.67
2023-03-02T04:34:21.533Z,35.38
2023-03-02T04:36:53.751Z,35.42
2023-03-02T04:39:26.141Z,35.30
2023-03-02T04:41:57.619Z,35.55
2023-03-02T04:44:29.063Z,35.67
2023-03-02T04:47:00.583Z,35.35
2023-03-02T04:49:32.117Z,36.15
2023-03-02T04:52:04.280Z,37.40
2023-03-02T04:54:35.736Z,34.65
2023-03-02T04:57:07.384Z,36.10
2023-03-02T04:59:39.130Z,33.78
2023-03-02T05:02:11.007Z,32.80
2023-03-02T05:04:42.572Z,34.00
2023-03-02T05:07:14.127Z,34.05
2023-03-02T05:09:45.562Z,32.47
2023-03-02T05:12:17.167Z,34.85
2023-03-02T05:14:48.638Z,33.05
2023-03-02T05:17:20.084Z,34.17
2023-03-02T05:19:51.576Z,35.97
2023-03-02T05:22:22.968Z,31.00
2023-03-02T05:24:54.395Z,33.00
2023-03-02T05:27:25.787Z,31.02
2023-03-02T05:29:57.286Z,32.63
2023-03-02T05:32:28.770Z,32.67
2023-03-02T05:35:00.284Z,32.00
2023-03-02T05:37:31.750Z,32.10
2023-03-02T05:40:03.632Z,33.13
2023-03-02T05:42:35.701Z,33.25
2023-03-02T05:45:09.143Z,32.95
2023-03-02T05:47:40.589Z,32.75
2023-03-02T05:50:12.072Z,30.95
2023-03-02T05:52:43.577Z,31.30
2023-03-02T05:55:16.465Z,32.07
2023-03-02T05:57:47.970Z,33.13
2023-03-02T06:00:20.637Z,32.40
2023-03-02T06:02:52.072Z,31.75
2023-03-02T06:05:23.500Z,30.73
2023-03-02T06:07:54.938Z,30.90
2023-03-02T06:10:26.833Z,32.40
2023-03-02T06:12:58.317Z,32.53
2023-03-02T06:15:29.800Z,31.88
2023-03-02T06:18:01.357Z,31.33
2023-03-02T06:20:32.868Z,31.17
2023-03-02T06:23:04.340Z,32.03
2023-03-02T06:25:35.797Z,30.90
2023-03-02T06:28:07.638Z,32.30
2023-03-02T06:30:39.162Z,29.70
2023-03-02T06:33:10.547Z,31.15
2023-03-02T06:35:42.371Z,31.92
2023-03-02T06:38:14.114Z,32.00
2023-03-02T06:40:46.018Z,31.02
2023-03-02T06:43:17.448Z,31.80
2023-03-02T06:45:48.903Z,30.95
2023-03-02T06:48:20.326Z,31.05
2023-03-02T06:50:51.867Z,32.45
2023-03-02T06:53:23.390Z,30.35
2023-03-02T06:55:54.822Z,32.07
2023-03-02T06:58:26.296Z,31.38
2023-03-02T07:00:57.797Z,32.03
2023-03-02T07:03:29.264Z,30.65
2023-03-02T07:06:00.707Z,30.23
2023-03-02T07:08:32.341Z,30.97
2023-03-02T07:11:08.407Z,30.92
2023-03-02T07:13:40.504Z,30.67
2023-03-02T07:16:13.943Z,31.88
2023-03-02T07:18:45.397Z,30.77
2023-03-02T07:21:16.875Z,30.90
2023-03-02T07:23:48.388Z,31.55
2023-03-02T07:26:19.865Z,31.10
2023-03-02T07:28:51.323Z,30.73
2023-03-02T07:31:22.743Z,33.00
2023-03-02T07:33:54.181Z,30.77
2023-03-02T07:36:25.633Z,31.67
2023-03-02T07:38:57.067Z,32.20
2023-03-02T07:41:28.657Z,31.80
2023-03-02T07:44:00.100Z,30.30
2023-03-02T07:46:31.603Z,31.20
2023-03-02T07:49:03.220Z,31.17
2023-03-02T07:51:34.906Z,31.02
2023-03-02T07:54:06.509Z,30.65
2023-03-02T07:56:37.955Z,30.90
2023-03-02T07:59:09.597Z,31.52
2023-03-02T08:01:41.321Z,29.83
2023-03-02T08:04:20.212Z,31.65
2023-03-02T08:06:52.098Z,30.23
2023-03-02T08:09:23.554Z,31.15
2023-03-02T08:11:54.969Z,31.42
2023-03-02T08:14:26.717Z,31.27
2023-03-02T08:16:58.187Z,30.25
2023-03-02T08:19:29.678Z,30.23
2023-03-02T08:22:02.207Z,30.02
2023-03-02T08:24:33.661Z,29.30
2023-03-02T08:27:05.258Z,29.80
2023-03-02T08:29:36.970Z,28.70
2023-03-02T08:32:08.543Z,28.55
2023-03-02T08:34:40.226Z,29.23
2023-03-02T08:37:11.698Z,28.33
2023-03-02T08:39:43.142Z,28.70
2023-03-02T08:42:14.554Z,26.90
2023-03-02T08:44:46.038Z,27.88
2023-03-02T08:47:17.502Z,27.77
2023-03-02T08:49:48.895Z,27.63
2023-03-02T08:52:20.431Z,26.70
2023-03-02T08:54:51.935Z,26.85
2023-03-02T08:57:23.581Z,25.97
2023-03-02T08:59:55.147Z,25.77
2023-03-02T09:02:26.643Z,23.38
2023-03-02T09:04:58.123Z,23.25
2023-03-02T09:07:29.660Z,22.55
2023-03-02T09:10:01.130Z,21.97
2023-03-02T09:12:32.612Z,20.55
2023-03-02T09:15:04.428Z,19.90
2023-03-02T09:17:35.864Z,19.35
2023-03-02T09:20:08.711Z,19.95
2023-03-02T09:22:40.820Z,18.48
2023-03-02T09:25:12.276Z,18.75
2023-03-02T09:27:44.792Z,18.25
2023-03-02T09:30:16.402Z,18.80
2023-03-02T09:32:48.031Z,18.13
2023-03-02T09:35:19.547Z,18.35
2023-03-02T09:37:51.044Z,17.90
2023-03-02T09:40:25.022Z,16.67
2023-03-02T09:43:07.545Z,17.20
2023-03-02T09:46:00.825Z,17.45
2023-03-02T09:48:43.179Z,17.13
2023-03-02T09:51:33.197Z,16.80
2023-03-02T09:54:12.113Z,16.43
2023-03-02T09:56:53.465Z,16.85
2023-03-02T09:59:38.371Z,15.63
2023-03-02T10:02:15.565Z,16.00
2023-03-02T10:04:50.250Z,16.73
2023-03-02T10:07:37.896Z,16.58
2023-03-02T10:10:09.401Z,17.17
2023-03-02T10:13:09.860Z,16.88
2023-03-02T10:15:45.966Z,15.82
2023-03-02T10:18:23.406Z,15.10
2023-03-02T10:21:07.282Z,15.90
2023-03-02T10:23:47.889Z,15.35
2023-03-02T10:26:31.925Z,15.80
2023-03-02T10:29:40.815Z,15.05
2023-03-02T10:32:23.727Z,14.93
2023-03-02T10:34:55.723Z,14.90
2023-03-02T10:37:30.577Z,15.85
2023-03-02T10:40:02.080Z,15.13
2023-03-02T10:42:40.279Z,14.77
2023-03-02T10:45:30.958Z,15.48
2023-03-02T10:48:06.844Z,14.82
2023-03-02T10:50:38.771Z,15.70
2023-03-02T10:53:19.320Z,15.45
2023-03-02T10:55:53.421Z,15.10
2023-03-02T10:58:34.079Z,14.63
2023-03-02T11:01:17.433Z,15.45
2023-03-02T11:03:59.687Z,16.75
2023-03-02T11:06:31.579Z,16.10
2023-03-02T11:09:08.360Z,16.85
2023-03-02T11:11:39.875Z,15.98
2023-03-02T11:14:16.725Z,16.20
2023-03-02T11:16:48.195Z,15.98
2023-03-02T11:19:24.988Z,17.05
2023-03-02T11:22:40.791Z,17.33
2023-03-02T11:25:23.536Z,17.05
2023-03-02T11:28:02.513Z,16.98
2023-03-02T11:30:39.048Z,16.60
2023-03-02T11:33:27.750Z,17.83
2023-03-02T11:36:06.191Z,17.27
2023-03-02T11:38:50.367Z,16.95
2023-03-02T11:41:25.901Z,16.73
2023-03-02T11:44:01.322Z,16.80
2023-03-02T11:46:33.432Z,17.30
2023-03-02T11:49:13.402Z,17.17
2023-03-02T11:51:58.283Z,16.45
2023-03-02T11:54:45.691Z,17.45
2023-03-02T11:57:25.451Z,16.77
2023-03-02T11:59:58.458Z,17.80
2023-03-02T12:02:29.919Z,17.73
2023-03-02T12:05:08.724Z,17.10
2023-03-02T12:07:40.477Z,16.85
2023-03-02T12:10:55.450Z,16.92
2023-03-02T12:13:40.729Z,16.70
2023-03-02T12:16:34.489Z,17.05
2023-03-02T12:19:18.112Z,18.05
2023-03-02T12:21:58.594Z,16.35
2023-03-02T12:24:32.688Z,16.85
2023-03-02T12:27:08.025Z,17.33
2023-03-02T12:29:44.406Z,16.15
2023-03-02T12:32:18.859Z,16.50
2023-03-02T12:35:16.110Z,16.92
2023-03-02T12:37:58.645Z,16.15
2023-03-02T12:41:07.684Z,16.02
2023-03-02T12:44:17.787Z,16.48
2023-03-02T12:46:49.846Z,16.77
2023-03-02T12:49:33.554Z,15.98
2023-03-02T12:52:30.643Z,16.67
2023-03-02T12:55:04.337Z,17.02
2023-03-02T12:57:47.879Z,16.05
2023-03-02T13:00:23.530Z,16.83
2023-03-02T13:02:56.616Z,16.10
2023-03-02T13:05:30.830Z,15.75
2023-03-02T13:08:16.164Z,15.20
2023-03-02T13:10:53.817Z,15.35
2023-03-02T13:13:36.856Z,14.77
2023-03-02T13:16:25.214Z,14.93
2023-03-02T13:19:00.046Z,14.80
2023-03-02T13:21:40.741Z,13.53
2023-03-02T13:24:35.176Z,14.38
2023-03-02T13:27:15.405Z,15.00
2023-03-02T13:29:47.832Z,16.45
2023-03-02T13:32:28.448Z,16.98
2023-03-02T13:35:00.859Z,17.73
2023-03-02T13:37:41.004Z,17.15
2023-03-02T13:40:27.597Z,15.82
2023-03-02T13:42:59.108Z,17.92
2023-03-02T13:45:32.265Z,16.38
2023-03-02T13:48:14.753Z,17.48
2023-03-02T13:51:02.992Z,17.10
2023-03-02T13:53:34.528Z,17.10
2023-03-02T13:56:06.230Z,16.13
2023-03-02T13:58:39.392Z,15.48
2023-03-02T14:01:12.737Z,16.45
2023-03-02T14:03:44.291Z,18.20
2023-03-02T14:06:16.154Z,16.83
2023-03-02T14:08:47.699Z,17.30
2023-03-02T14:11:19.171Z,16.95
2023-03-02T14:13:54.977Z,16.30
2023-03-02T14:16:26.652Z,16.65
2023-03-02T14:18:58.172Z,16.43
2023-03-02T14:21:29.805Z,16.20
2023-03-02T14:24:01.425Z,16.33
2023-03-02T14:26:36.557Z,16.05
2023-03-02T14:29:25.560Z,16.17
2023-03-02T14:31:59.546Z,16.30
2023-03-02T14:34:31.010Z,16.33
2023-03-02T14:37:07.975Z,15.25
2023-03-02T14:39:50.411Z,16.45
2023-03-02T14:42:22.901Z,16.60
2023-03-02T14:44:54.310Z,16.63
2023-03-02T14:47:25.955Z,17.17
2023-03-02T14:49:57.415Z,17.70
2023-03-02T14:52:45.498Z,17.13
2023-03-02T14:55:22.509Z,17.67
2023-03-02T14:57:57.317Z,17.75
2023-03-02T15:00:29.255Z,17.88
2023-03-02T15:03:00.787Z,17.70
2023-03-02T15:05:32.323Z,18.17
2023-03-02T15:08:03.940Z,17.53
2023-03-02T15:10:35.393Z,16.50
2023-03-02T15:13:06.857Z,15.95
2023-03-02T15:15:41.396Z,15.98
2023-03-02T15:18:13.895Z,15.70
2023-03-02T15:20:45.381Z,15.80
2023-03-02T15:23:16.853Z,16.67
2023-03-02T15:25:48.317Z,15.93
2023-03-02T15:28:19.766Z,16.38
2023-03-02T15:30:51.183Z,15.98
2023-03-02T15:33:22.878Z,16.63
2023-03-02T15:35:55.524Z,16.15
2023-03-02T15:38:27.357Z,15.82
2023-03-02T15:40:59.115Z,15.50
2023-03-02T15:43:30.535Z,15.70
2023-03-02T15:46:02.277Z,14.67
2023-03-02T15:48:33.767Z,13.75
2023-03-02T15:51:07.239Z,13.80
2023-03-02T15:53:39.414Z,14.48
2023-03-02T15:56:13.631Z,14.15
2023-03-02T15:58:49.854Z,14.80
2023-03-02T16:01:21.287Z,13.38
2023-03-02T16:03:52.726Z,13.95
2023-03-02T16:06:24.228Z,14.82
2023-03-02T16:08:55.815Z,15.00
2023-03-02T16:11:27.275Z,15.05
2023-03-02T16:13:58.808Z,15.07
2023-03-02T16:16:30.376Z,15.45
2023-03-02T16:19:01.955Z,15.30
2023-03-02T16:21:33.368Z,15.20
2023-03-02T16:24:05.982Z,15.30
2023-03-02T16:26:38.236Z,16.08
2023-03-02T16:29:11.665Z,15.95
2023-03-02T16:31:46.411Z,16.98
2023-03-02T16:34:17.929Z,16.60
2023-03-02T16:36:49.404Z,17.60
2023-03-02T16:39:20.867Z,17.42
2023-03-02T16:41:52.445Z,16.47
2023-03-02T16:44:23.892Z,17.73
2023-03-02T16:46:57.361Z,18.90
2023-03-02T16:49:29.180Z,17.95
2023-03-02T16:52:00.637Z,18.17
2023-03-02T16:54:32.105Z,19.10
2023-03-02T16:57:03.659Z,19.10
2023-03-02T16:59:35.169Z,19.58
2023-03-02T17:02:07.133Z,18.88
2023-03-02T17:04:38.599Z,19.60
2023-03-02T17:07:10.118Z,20.13
2023-03-02T17:09:41.514Z,19.00
2023-03-02T17:12:12.966Z,19.17
2023-03-02T17:14:44.514Z,19.25
2023-03-02T17:17:15.995Z,18.52
2023-03-02T17:19:47.544Z,18.60
2023-03-02T17:22:18.981Z,19.63
2023-03-02T17:24:50.820Z,19.13
2023-03-02T17:27:25.305Z,17.52
2023-03-02T17:29:57.405Z,18.73
2023-03-02T17:32:29.071Z,18.30
2023-03-02T17:35:00.488Z,18.13
2023-03-02T17:37:32.428Z,18.40
2023-03-02T17:40:05.580Z,18.97
2023-03-02T17:42:39.242Z,17.85
2023-03-02T17:45:36.799Z,18.67
2023-03-02T17:48:08.248Z,17.35
2023-03-02T17:50:39.840Z,17.63
2023-03-02T17:53:11.276Z,17.90
2023-03-02T17:55:42.688Z,18.17
2023-03-02T17:58:14.133Z,19.75
2023-03-02T18:00:45.566Z,18.30
2023-03-02T18:03:17.103Z,18.98
2023-03-02T18:05:48.591Z,19.67
2023-03-02T18:08:20.069Z,19.50
2023-03-02T18:10:51.695Z,20.03
2023-03-02T18:13:23.364Z,20.33
2023-03-02T18:15:54.900Z,19.67
2023-03-02T18:18:26.391Z,19.80
2023-03-02T18:20:57.889Z,19.88
2023-03-02T18:23:30.317Z,20.37
2023-03-02T18:26:01.818Z,20.75
2023-03-02T18:28:33.298Z,21.57
2023-03-02T18:31:05.192Z,21.48
2023-03-02T18:33:36.649Z,21.65
2023-03-02T18:36:08.499Z,22.13
2023-03-02T18:38:40.512Z,20.27
2023-03-02T18:41:13.353Z,19.47
2023-03-02T18:43:44.951Z,19.48
2023-03-02T18:46:24.841Z,18.48
2023-03-02T18:48:57.458Z,18.13
2023-03-02T18:51:28.910Z,17.83
2023-03-02T18:54:00.381Z,17.25
2023-03-02T18:56:31.943Z,18.52
2023-03-02T18:59:03.433Z,16.50
2023-03-02T19:01:35.227Z,15.77
2023-03-02T19:04:06.895Z,15.80
2023-03-02T19:06:38.373Z,15.30
2023-03-02T19:09:10.590Z,15.20
2023-03-02T19:11:41.985Z,14.88
2023-03-02T19:14:14.147Z,13.87
2023-03-02T19:16:46.178Z,15.00
2023-03-02T19:19:17.766Z,15.25
2023-03-02T19:21:49.368Z,14.30
2023-03-02T19:24:20.797Z,14.43
2023-03-02T19:26:52.840Z,13.73
2023-03-02T19:29:24.345Z,14.40
2023-03-02T19:31:56.072Z,13.68
2023-03-02T19:34:27.662Z,13.90
2023-03-02T19:36:59.135Z,13.35
2023-03-02T19:39:30.590Z,14.10
2023-03-02T19:42:02.034Z,13.43
2023-03-02T19:44:34.084Z,13.07
2023-03-02T19:47:05.534Z,13.57
2023-03-02T19:49:37.049Z,13.02
2023-03-02T19:52:09.219Z,14.17
2023-03-02T19:54:40.637Z,13.85
2023-03-02T19:57:12.243Z,13.68
2023-03-02T19:59:43.816Z,13.70
2023-03-02T20:02:15.369Z,13.85
2023-03-02T20:04:46.851Z,13.73
2023-03-02T20:07:18.325Z,13.45
2023-03-02T20:09:49.898Z,12.93
2023-03-02T20:12:21.625Z,13.05
2023-03-02T20:14:53.107Z,13.10
2023-03-02T20:17:24.768Z,13.57
2023-03-02T20:19:56.788Z,12.55
2023-03-02T20:22:28.252Z,13.25
2023-03-02T20:24:59.678Z,13.93
2023-03-02T20:27:31.364Z,13.07
2023-03-02T20:30:05.867Z,13.35
2023-03-02T20:32:37.422Z,12.90
2023-03-02T20:35:10.653Z,12.50
2023-03-02T20:37:42.101Z,12.80
2023-03-02T20:40:14.750Z,13.05
2023-03-02T20:42:46.245Z,13.03
2023-03-02T20:45:18.265Z,13.35
2023-03-02T20:47:49.772Z,13.32
2023-03-02T20:50:25.336Z,12.20
2023-03-02T20:52:57.154Z,13.48
2023-03-02T20:55:29.054Z,14.02
2023-03-02T20:58:00.528Z,15.43
2023-03-02T21:00:33.992Z,13.43
2023-03-02T21:03:07.154Z,13.82
2023-03-02T21:05:42.092Z,14.17
2023-03-02T21:08:13.987Z,14.05
2023-03-02T21:10:45.901Z,13.70
2023-03-02T21:13:17.543Z,13.68
2023-03-02T21:15:49.269Z,13.13
2023-03-02T21:18:20.701Z,13.18
2023-03-02T21:20:52.198Z,14.05
2023-03-02T21:23:23.685Z,14.05
2023-03-02T21:25:55.757Z,13.52
2023-03-02T21:28:27.250Z,13.18
2023-03-02T21:30:58.916Z,13.87
2023-03-02T21:33:30.510Z,12.60
2023-03-02T21:36:01.979Z,12.90
2023-03-02T21:38:33.435Z,13.93
2023-03-02T21:41:05.052Z,13.43
2023-03-02T21:43:36.528Z,13.43
2023-03-02T21:46:08.120Z,13.82
2023-03-02T21:48:39.724Z,13.85
2023-03-02T21:51:12.535Z,12.50
2023-03-02T21:53:44.048Z,12.50
2023-03-02T21:56:18.848Z,11.45
2023-03-02T21:58:52.564Z,11.10
2023-03-02T22:01:25.069Z,12.48
2023-03-02T22:03:56.987Z,12.50
2023-03-02T22:06:30.843Z,11.98
2023-03-02T22:09:03.227Z,11.00
2023-03-02T22:11:37.056Z,13.05
2023-03-02T22:14:14.803Z,10.98
2023-03-02T22:16:47.423Z,10.68
2023-03-02T22:19:26.373Z,12.13
2023-03-02T22:22:01.326Z,11.02
2023-03-02T22:24:33.903Z,11.33
2023-03-02T22:27:05.281Z,11.13
2023-03-02T22:29:45.600Z,11.23
2023-03-02T22:32:36.663Z,11.95
2023-03-02T22:35:14.423Z,11.77
2023-03-02T22:37:45.910Z,11.35
2023-03-02T22:40:31.438Z,11.30
2023-03-02T22:43:19.348Z,13.30
2023-03-02T22:45:52.011Z,11.40
2023-03-02T22:48:23.601Z,10.93
2023-03-02T22:50:55.011Z,11.57
2023-03-02T22:53:31.884Z,10.77
2023-03-02T22:56:14.605Z,11.25
2023-03-02T22:58:48.784Z,12.00
2023-03-02T23:01:40.427Z,12.32
2023-03-02T23:04:27.139Z,12.15
2023-03-02T23:07:02.384Z,12.55
2023-03-02T23:09:35.014Z,11.30
2023-03-02T23:12:23.818Z,12.25
2023-03-02T23:14:57.020Z,12.57
2023-03-02T23:17:39.519Z,12.15
2023-03-02T23:20:13.616Z,12.80
2023-03-02T23:22:45.076Z,10.80
2023-03-02T23:25:16.684Z,12.70
2023-03-02T23:27:48.107Z,11.60
2023-03-02T23:30:19.676Z,12.93
2023-03-02T23:32:51.209Z,11.60
2023-03-02T23:35:22.716Z,12.65
2023-03-02T23:37:54.195Z,11.75
2023-03-02T23:40:25.675Z,11.55
2023-03-02T23:42:57.242Z,11.98
2023-03-02T23:45:28.801Z,12.70
2023-03-02T23:48:00.287Z,12.10
2023-03-02T23:50:31.779Z,12.85
2023-03-02T23:53:03.214Z,12.73
2023-03-02T23:55:35.584Z,13.45
2023-03-02T23:58:06.986Z,12.23
